Time;durP1;ratioP1;P1;durP2;ratioP2;P2;SDS_P1;SDS_P2;PMS_P1;PMS_P2;Temp;Humidity;BMP_temperature;BMP_pressure;BME280_temperature;BME280_humidity;BME280_pressure;Samples;Min_cycle;Max_cycle;Signal;HPM_P1;HPM_P2
2023/08/31 00:00:41;;;;;;;4.03;2.70;;;;;;;;;;5061911;28;20047;-56
2023/08/31 00:03:08;;;;;;;3.60;2.38;;;;;;;;;;5062459;28;20049;-56
2023/08/31 00:05:40;;;;;;;3.90;2.30;;;;;;;;;;5059063;28;20131;-58
2023/08/31 00:08:07;;;;;;;3.38;1.95;;;;;;;;;;5059401;28;20048;-52
2023/08/31 00:10:34;;;;;;;4.32;2.67;;;;;;;;;;5051289;28;20390;-56
2023/08/31 00:13:01;;;;;;;3.50;2.15;;;;;;;;;;5064897;28;20102;-57
2023/08/31 00:15:28;;;;;;;3.33;2.10;;;;;;;;;;5054130;28;20417;-57
2023/08/31 00:17:55;;;;;;;4.10;2.20;;;;;;;;;;5064833;28;20141;-55
2023/08/31 00:20:22;;;;;;;3.25;2.00;;;;;;;;;;5061992;28;20044;-58
2023/08/31 00:22:50;;;;;;;4.10;2.67;;;;;;;;;;5057251;28;20032;-56
2023/08/31 00:25:17;;;;;;;4.20;2.55;;;;;;;;;;5057963;28;20052;-58
2023/08/31 00:27:47;;;;;;;3.28;2.40;;;;;;;;;;5060308;28;20110;-56
2023/08/31 00:30:14;;;;;;;3.70;2.33;;;;;;;;;;5051752;28;20539;-56
2023/08/31 00:32:42;;;;;;;3.97;2.50;;;;;;;;;;5053467;28;20285;-56
2023/08/31 00:35:09;;;;;;;4.40;2.53;;;;;;;;;;5060646;28;20059;-58
2023/08/31 00:37:36;;;;;;;4.93;2.80;;;;;;;;;;5054329;28;20052;-53
2023/08/31 00:40:06;;;;;;;4.32;2.50;;;;;;;;;;5055705;28;20064;-52
2023/08/31 00:42:33;;;;;;;3.67;2.40;;;;;;;;;;5054829;28;20079;-52
2023/08/31 00:45:00;;;;;;;4.57;2.55;;;;;;;;;;5062057;28;20048;-53
2023/08/31 00:47:27;;;;;;;4.10;2.60;;;;;;;;;;5058244;28;20394;-52
2023/08/31 00:49:53;;;;;;;3.63;2.20;;;;;;;;;;5063515;28;20044;-60
2023/08/31 00:52:20;;;;;;;3.28;2.05;;;;;;;;;;5057446;28;20060;-60
2023/08/31 00:54:47;;;;;;;4.47;2.53;;;;;;;;;;5053817;28;20421;-53
2023/08/31 00:57:15;;;;;;;3.72;2.30;;;;;;;;;;5064087;28;20048;-57
2023/08/31 00:59:42;;;;;;;3.40;2.40;;;;;;;;;;5055552;28;20123;-59
2023/08/31 01:02:20;;;;;;;3.50;2.20;;;;;;;;;;5052072;28;20127;-52
2023/08/31 01:04:53;;;;;;;4.63;2.50;;;;;;;;;;5053566;28;20046;-55
2023/08/31 01:07:27;;;;;;;4.28;2.35;;;;;;;;;;5058472;28;20325;-57
2023/08/31 01:10:01;;;;;;;3.97;2.53;;;;;;;;;;5052742;28;20166;-53
2023/08/31 01:12:36;;;;;;;3.97;2.40;;;;;;;;;;5060777;28;20037;-55
2023/08/31 01:15:07;;;;;;;3.53;2.25;;;;;;;;;;5065243;28;20048;-56
2023/08/31 01:17:38;;;;;;;3.75;2.30;;;;;;;;;;5048609;28;20045;-57
2023/08/31 01:20:08;;;;;;;3.97;2.60;;;;;;;;;;5058034;28;20048;-57
2023/08/31 01:22:41;;;;;;;4.35;2.65;;;;;;;;;;5056773;28;20045;-56
2023/08/31 01:25:09;;;;;;;3.33;2.33;;;;;;;;;;5058786;28;20055;-56
2023/08/31 01:27:37;;;;;;;4.70;2.65;;;;;;;;;;5057995;28;20045;-55
2023/08/31 01:30:04;;;;;;;5.07;2.70;;;;;;;;;;5053161;28;20409;-58
2023/08/31 01:32:32;;;;;;;4.60;3.15;;;;;;;;;;5058570;28;20056;-55
2023/08/31 01:35:01;;;;;;;3.92;2.70;;;;;;;;;;5051795;28;20052;-56
2023/08/31 01:37:34;;;;;;;4.70;2.72;;;;;;;;;;5059773;28;20045;-52
2023/08/31 01:40:07;;;;;;;5.07;2.92;;;;;;;;;;5049865;28;20074;-58
2023/08/31 01:42:36;;;;;;;5.38;2.92;;;;;;;;;;5055159;28;20408;-55
2023/08/31 01:45:04;;;;;;;4.50;3.03;;;;;;;;;;5062564;28;20070;-57
2023/08/31 01:47:31;;;;;;;4.50;3.15;;;;;;;;;;5046180;28;20041;-59
2023/08/31 01:49:58;;;;;;;4.20;3.13;;;;;;;;;;5048730;28;20048;-52
2023/08/31 01:52:24;;;;;;;4.50;2.80;;;;;;;;;;5054346;28;20041;-55
2023/08/31 01:54:51;;;;;;;5.38;3.53;;;;;;;;;;5056943;28;20051;-56
2023/08/31 01:57:18;;;;;;;5.43;3.47;;;;;;;;;;5054649;28;20545;-55
2023/08/31 01:59:46;;;;;;;4.32;2.80;;;;;;;;;;5050097;28;20536;-55
2023/08/31 02:02:12;;;;;;;3.70;2.60;;;;;;;;;;5048797;28;20048;-55
2023/08/31 02:04:39;;;;;;;4.82;2.97;;;;;;;;;;5054176;28;20438;-56
2023/08/31 02:07:05;;;;;;;4.57;2.47;;;;;;;;;;5053779;28;20417;-60
2023/08/31 02:09:32;;;;;;;3.60;2.38;;;;;;;;;;5047724;28;20044;-57
2023/08/31 02:11:59;;;;;;;3.25;2.20;;;;;;;;;;5056550;28;20276;-56
2023/08/31 02:14:25;;;;;;;4.32;2.60;;;;;;;;;;5056959;28;20513;-59
2023/08/31 02:16:53;;;;;;;3.42;2.20;;;;;;;;;;5055086;28;20055;-55
2023/08/31 02:19:20;;;;;;;3.40;2.33;;;;;;;;;;5047790;28;20072;-56
2023/08/31 02:21:46;;;;;;;3.60;2.30;;;;;;;;;;5059043;28;20053;-55
2023/08/31 02:24:13;;;;;;;3.95;2.25;;;;;;;;;;5054794;28;20051;-55
2023/08/31 02:26:40;;;;;;;3.70;2.35;;;;;;;;;;5059629;28;20037;-57
2023/08/31 02:29:06;;;;;;;4.10;2.40;;;;;;;;;;5048036;28;20052;-59
2023/08/31 02:31:33;;;;;;;3.60;2.40;;;;;;;;;;5055457;28;20045;-53
2023/08/31 02:34:01;;;;;;;4.50;2.70;;;;;;;;;;5048638;28;20583;-54
2023/08/31 02:36:27;;;;;;;3.90;2.50;;;;;;;;;;5055501;28;20045;-58
2023/08/31 02:38:54;;;;;;;4.25;2.60;;;;;;;;;;5054099;28;20044;-58
2023/08/31 02:41:20;;;;;;;4.05;2.40;;;;;;;;;;5048286;28;20063;-56
2023/08/31 02:43:47;;;;;;;3.88;2.83;;;;;;;;;;5060177;28;20041;-56
2023/08/31 02:46:14;;;;;;;4.60;3.05;;;;;;;;;;5046699;28;20349;-55
2023/08/31 02:48:40;;;;;;;5.57;3.38;;;;;;;;;;5056791;28;20045;-56
2023/08/31 02:51:08;;;;;;;5.47;3.30;;;;;;;;;;5053100;28;20051;-56
2023/08/31 02:53:35;;;;;;;4.50;3.50;;;;;;;;;;5052842;28;20565;-53
2023/08/31 02:56:01;;;;;;;6.18;3.35;;;;;;;;;;5052115;28;20044;-57
2023/08/31 02:58:28;;;;;;;4.88;2.97;;;;;;;;;;5048673;28;20037;-58
2023/08/31 03:00:55;;;;;;;4.50;3.40;;;;;;;;;;5059876;28;20051;-56
2023/08/31 03:03:22;;;;;;;5.22;3.78;;;;;;;;;;5053357;28;20466;-58
2023/08/31 03:05:49;;;;;;;5.88;3.70;;;;;;;;;;5055828;28;20036;-57
2023/08/31 03:08:17;;;;;;;5.13;3.70;;;;;;;;;;5048987;28;20044;-57
2023/08/31 03:10:43;;;;;;;5.35;4.13;;;;;;;;;;5053106;28;20047;-57
2023/08/31 03:13:10;;;;;;;5.30;4.00;;;;;;;;;;5056985;28;20516;-58
2023/08/31 03:15:36;;;;;;;5.55;3.85;;;;;;;;;;5051463;28;20565;-57
2023/08/31 03:18:03;;;;;;;4.90;3.70;;;;;;;;;;5052335;28;20041;-55
2023/08/31 03:20:29;;;;;;;5.13;3.30;;;;;;;;;;5054161;28;20041;-53
2023/08/31 03:22:56;;;;;;;5.80;3.78;;;;;;;;;;5053502;28;20047;-53
2023/08/31 03:25:25;;;;;;;5.70;4.30;;;;;;;;;;5056633;28;20055;-56
2023/08/31 03:27:51;;;;;;;5.38;4.15;;;;;;;;;;5053144;28;20072;-56
2023/08/31 03:30:18;;;;;;;5.22;4.18;;;;;;;;;;5048352;28;20047;-58
2023/08/31 03:32:44;;;;;;;6.07;4.20;;;;;;;;;;5052670;28;20045;-55
2023/08/31 03:35:11;;;;;;;5.93;3.95;;;;;;;;;;5052385;28;20051;-55
2023/08/31 03:37:38;;;;;;;5.68;4.05;;;;;;;;;;5051388;28;20076;-54
2023/08/31 03:40:06;;;;;;;5.30;3.33;;;;;;;;;;5052352;28;20505;-51
2023/08/31 03:42:34;;;;;;;5.60;3.30;;;;;;;;;;5047547;28;20053;-57
2023/08/31 03:45:01;;;;;;;5.95;3.83;;;;;;;;;;5056000;28;20509;-54
2023/08/31 03:47:28;;;;;;;4.93;3.50;;;;;;;;;;5049509;28;20378;-52
2023/08/31 03:49:54;;;;;;;5.80;4.07;;;;;;;;;;5049688;28;20478;-55
2023/08/31 03:52:21;;;;;;;4.53;3.30;;;;;;;;;;5048521;28;20063;-55
2023/08/31 03:54:48;;;;;;;5.20;3.50;;;;;;;;;;5060017;28;20047;-55
2023/08/31 03:57:15;;;;;;;5.30;3.65;;;;;;;;;;5061417;28;20076;-54
2023/08/31 03:59:43;;;;;;;4.90;3.28;;;;;;;;;;5059619;28;20044;-54
2023/08/31 04:02:09;;;;;;;5.10;3.20;;;;;;;;;;5060780;28;20241;-58
2023/08/31 04:04:36;;;;;;;5.20;3.22;;;;;;;;;;5055735;28;20052;-54
2023/08/31 04:07:03;;;;;;;4.82;3.08;;;;;;;;;;5059262;28;20060;-55
2023/08/31 04:09:30;;;;;;;5.68;3.60;;;;;;;;;;5049680;28;20042;-59
2023/08/31 04:11:56;;;;;;;4.97;3.05;;;;;;;;;;5052464;28;20041;-59
2023/08/31 04:14:23;;;;;;;4.78;3.35;;;;;;;;;;5052441;28;20127;-62
2023/08/31 04:16:51;;;;;;;4.90;3.25;;;;;;;;;;5041359;28;20042;-56
2023/08/31 04:19:18;;;;;;;4.82;2.90;;;;;;;;;;5052937;28;20073;-62
2023/08/31 04:21:44;;;;;;;4.65;3.22;;;;;;;;;;5046318;28;20049;-58
2023/08/31 04:24:11;;;;;;;5.15;3.30;;;;;;;;;;5052150;28;20045;-55
2023/08/31 04:26:38;;;;;;;4.60;2.92;;;;;;;;;;5054559;28;20571;-59
2023/08/31 04:29:05;;;;;;;5.13;3.13;;;;;;;;;;5056380;28;20044;-54
2023/08/31 04:31:32;;;;;;;6.35;3.60;;;;;;;;;;5050446;28;20053;-58
2023/08/31 04:34:00;;;;;;;4.35;2.80;;;;;;;;;;5058955;28;20045;-57
2023/08/31 04:36:26;;;;;;;4.47;3.30;;;;;;;;;;5053248;28;20045;-57
2023/08/31 04:38:53;;;;;;;4.47;3.10;;;;;;;;;;5053411;28;20506;-55
2023/08/31 04:41:20;;;;;;;4.63;3.00;;;;;;;;;;5047526;28;20071;-57
2023/08/31 04:43:48;;;;;;;4.70;3.08;;;;;;;;;;5060890;28;20047;-54
2023/08/31 04:46:15;;;;;;;5.85;3.90;;;;;;;;;;5055467;28;20124;-54
2023/08/31 04:48:41;;;;;;;4.93;2.95;;;;;;;;;;5065665;28;20072;-56
2023/08/31 04:51:27;;;;;;;4.53;3.28;;;;;;;;;;5066091;28;20052;-55
2023/08/31 04:53:54;;;;;;;6.85;2.95;;;;;;;;;;5064012;28;20051;-58
2023/08/31 04:56:20;;;;;;;5.05;3.13;;;;;;;;;;5058188;28;20045;-57
2023/08/31 04:58:47;;;;;;;5.40;3.72;;;;;;;;;;5051887;28;20052;-55
2023/08/31 05:01:14;;;;;;;5.07;3.15;;;;;;;;;;5054929;28;20055;-60
2023/08/31 05:03:41;;;;;;;4.93;3.20;;;;;;;;;;5055940;28;20041;-56
2023/08/31 05:06:09;;;;;;;4.32;3.10;;;;;;;;;;5047792;28;20045;-53
2023/08/31 05:08:35;;;;;;;5.55;2.90;;;;;;;;;;5055590;28;20041;-54
2023/08/31 05:11:02;;;;;;;5.03;3.28;;;;;;;;;;5052108;28;20386;-54
2023/08/31 05:13:29;;;;;;;4.95;3.00;;;;;;;;;;5057551;28;20044;-56
2023/08/31 05:15:55;;;;;;;4.88;2.97;;;;;;;;;;5050867;28;20441;-55
2023/08/31 05:18:22;;;;;;;4.82;3.00;;;;;;;;;;5046222;28;20434;-53
2023/08/31 05:20:49;;;;;;;4.60;3.20;;;;;;;;;;5054925;28;20236;-56
2023/08/31 05:23:17;;;;;;;5.10;2.92;;;;;;;;;;5048670;28;20055;-56
2023/08/31 05:25:44;;;;;;;4.07;2.75;;;;;;;;;;5077421;22;20044;-52
2023/08/31 05:28:10;;;;;;;3.95;2.47;;;;;;;;;;5087008;28;20048;-55
2023/08/31 05:30:37;;;;;;;5.82;2.55;;;;;;;;;;5087891;28;20051;-52
2023/08/31 05:33:04;;;;;;;4.47;2.65;;;;;;;;;;5089507;28;20067;-55
2023/08/31 05:35:31;;;;;;;4.05;2.72;;;;;;;;;;5085433;28;20067;-55
2023/08/31 05:37:58;;;;;;;4.57;2.60;;;;;;;;;;5089469;28;20097;-52
2023/08/31 05:40:26;;;;;;;4.75;2.50;;;;;;;;;;5089975;28;20428;-57
2023/08/31 05:42:52;;;;;;;3.95;2.42;;;;;;;;;;5089740;28;20411;-58
2023/08/31 05:45:19;;;;;;;4.38;2.83;;;;;;;;;;5089827;28;20540;-55
2023/08/31 05:47:45;;;;;;;4.05;2.50;;;;;;;;;;5089714;28;20140;-58
2023/08/31 05:50:12;;;;;;;3.75;2.10;;;;;;;;;;5088998;28;20048;-55
2023/08/31 05:52:43;;;;;;;3.42;2.30;;;;;;;;;;5089306;28;20071;-55
2023/08/31 05:55:10;;;;;;;4.25;2.42;;;;;;;;;;5087260;28;20050;-53
2023/08/31 05:57:38;;;;;;;4.53;3.00;;;;;;;;;;5089376;28;20050;-56
2023/08/31 06:00:07;;;;;;;5.18;3.58;;;;;;;;;;5089726;28;20098;-55
2023/08/31 06:02:33;;;;;;;4.47;2.30;;;;;;;;;;5088394;28;20443;-55
2023/08/31 06:05:00;;;;;;;4.90;2.67;;;;;;;;;;5086492;28;20054;-57
2023/08/31 06:07:28;;;;;;;5.05;2.58;;;;;;;;;;5089191;28;20507;-57
2023/08/31 06:09:55;;;;;;;3.60;2.15;;;;;;;;;;5089245;28;20047;-55
2023/08/31 06:12:22;;;;;;;3.97;2.50;;;;;;;;;;5087538;28;20067;-57
2023/08/31 06:14:50;;;;;;;4.10;2.35;;;;;;;;;;5088397;28;20131;-56
2023/08/31 06:17:17;;;;;;;4.95;2.50;;;;;;;;;;5085355;28;20047;-51
2023/08/31 06:19:44;;;;;;;3.88;2.10;;;;;;;;;;5086874;28;20044;-52
2023/08/31 06:22:10;;;;;;;4.65;2.25;;;;;;;;;;5085413;28;20078;-56
2023/08/31 06:24:37;;;;;;;5.28;3.13;;;;;;;;;;5080578;28;20040;-54
2023/08/31 06:27:04;;;;;;;4.88;2.70;;;;;;;;;;5088120;28;20063;-55
2023/08/31 06:29:31;;;;;;;4.55;2.53;;;;;;;;;;5091371;28;20052;-56
2023/08/31 06:31:59;;;;;;;5.60;2.30;;;;;;;;;;5081951;28;20048;-53
2023/08/31 06:34:26;;;;;;;4.18;2.47;;;;;;;;;;5088721;28;20417;-57
2023/08/31 06:36:52;;;;;;;5.68;2.63;;;;;;;;;;5082708;28;20413;-53
2023/08/31 06:39:19;;;;;;;4.03;2.28;;;;;;;;;;5085417;28;20101;-53
2023/08/31 06:41:45;;;;;;;3.78;2.30;;;;;;;;;;5086386;28;20055;-56
2023/08/31 06:44:12;;;;;;;4.22;2.63;;;;;;;;;;5086469;28;20050;-58
2023/08/31 06:46:39;;;;;;;5.22;2.78;;;;;;;;;;5076558;28;20055;-54
2023/08/31 06:49:06;;;;;;;3.78;2.42;;;;;;;;;;5084967;28;20046;-57
2023/08/31 06:51:34;;;;;;;4.85;2.33;;;;;;;;;;5085222;28;20040;-53
2023/08/31 06:54:06;;;;;;;4.10;2.78;;;;;;;;;;5084703;28;20055;-57
2023/08/31 06:56:33;;;;;;;4.65;2.45;;;;;;;;;;5086429;28;20047;-57
2023/08/31 06:59:00;;;;;;;3.55;2.28;;;;;;;;;;5088476;28;20044;-53
2023/08/31 07:01:28;;;;;;;5.57;2.53;;;;;;;;;;5088332;28;20131;-52
2023/08/31 07:03:54;;;;;;;4.63;2.45;;;;;;;;;;5080414;28;20043;-52
2023/08/31 07:06:22;;;;;;;3.97;2.40;;;;;;;;;;5088592;28;20051;-55
2023/08/31 07:08:49;;;;;;;4.03;2.63;;;;;;;;;;5088482;28;20048;-56
2023/08/31 07:11:16;;;;;;;4.28;1.92;;;;;;;;;;5086030;28;20040;-55
2023/08/31 07:13:42;;;;;;;4.30;2.75;;;;;;;;;;5088387;28;20364;-51
2023/08/31 07:16:09;;;;;;;5.35;2.35;;;;;;;;;;5088025;28;20098;-55
2023/08/31 07:18:37;;;;;;;3.78;2.13;;;;;;;;;;5088555;28;20431;-56
2023/08/31 07:21:04;;;;;;;4.82;2.30;;;;;;;;;;5088361;28;20052;-60
2023/08/31 07:23:32;;;;;;;4.70;2.58;;;;;;;;;;5084839;28;20056;-55
2023/08/31 07:26:00;;;;;;;4.78;2.50;;;;;;;;;;5086231;28;20048;-57
2023/08/31 07:28:26;;;;;;;4.40;2.45;;;;;;;;;;5084849;28;20062;-58
2023/08/31 07:31:01;;;;;;;4.10;1.90;;;;;;;;;;5084168;28;20048;-58
2023/08/31 07:33:28;;;;;;;3.17;2.03;;;;;;;;;;5084959;28;20055;-56
2023/08/31 07:35:54;;;;;;;4.30;2.28;;;;;;;;;;5086816;28;20135;-56
2023/08/31 07:38:21;;;;;;;5.65;2.08;;;;;;;;;;5091683;28;20083;-56
2023/08/31 07:40:50;;;;;;;4.53;2.35;;;;;;;;;;5093341;28;20040;-60
2023/08/31 07:43:16;;;;;;;4.60;2.25;;;;;;;;;;5085001;28;20040;-62
2023/08/31 07:45:43;;;;;;;4.30;2.17;;;;;;;;;;5087126;28;20044;-50
2023/08/31 07:48:10;;;;;;;6.20;2.33;;;;;;;;;;5091511;28;20588;-53
2023/08/31 07:50:36;;;;;;;3.95;2.10;;;;;;;;;;5091729;28;20066;-55
2023/08/31 07:53:03;;;;;;;4.18;1.90;;;;;;;;;;5091878;28;20046;-57
2023/08/31 07:55:29;;;;;;;3.45;2.00;;;;;;;;;;5091189;28;20044;-54
2023/08/31 07:57:57;;;;;;;4.20;1.90;;;;;;;;;;5091525;28;20036;-58
2023/08/31 08:00:24;;;;;;;3.15;1.67;;;;;;;;;;5091537;28;20051;-52
2023/08/31 08:02:51;;;;;;;4.25;1.80;;;;;;;;;;5092837;28;20075;-56
2023/08/31 08:05:17;;;;;;;4.18;2.53;;;;;;;;;;5091427;28;20127;-51
2023/08/31 08:07:44;;;;;;;4.30;2.40;;;;;;;;;;5091595;28;20471;-56
2023/08/31 08:10:12;;;;;;;4.07;1.80;;;;;;;;;;5088362;28;20051;-56
2023/08/31 08:12:39;;;;;;;3.72;2.05;;;;;;;;;;5091726;28;20424;-57
2023/08/31 08:15:08;;;;;;;3.70;1.98;;;;;;;;;;5091364;28;20051;-52
2023/08/31 08:17:35;;;;;;;4.22;2.03;;;;;;;;;;5088222;28;20051;-54
2023/08/31 08:20:03;;;;;;;4.82;2.10;;;;;;;;;;5088649;28;20168;-59
2023/08/31 08:22:29;;;;;;;2.95;1.77;;;;;;;;;;5086946;28;20097;-57
2023/08/31 08:24:56;;;;;;;5.32;2.20;;;;;;;;;;5088955;28;20409;-56
2023/08/31 08:27:23;;;;;;;3.55;1.83;;;;;;;;;;5086064;28;20050;-57
2023/08/31 08:29:49;;;;;;;4.65;2.13;;;;;;;;;;5089887;28;20051;-56
2023/08/31 08:32:17;;;;;;;4.53;2.13;;;;;;;;;;5087794;28;20712;-58
2023/08/31 08:34:44;;;;;;;5.18;2.30;;;;;;;;;;5089914;28;20036;-57
2023/08/31 08:37:10;;;;;;;3.42;1.80;;;;;;;;;;5089810;28;20062;-57
2023/08/31 08:39:37;;;;;;;5.63;2.72;;;;;;;;;;5090954;28;20047;-55
2023/08/31 08:42:08;;;;;;;3.90;1.88;;;;;;;;;;5090307;28;20727;-54
2023/08/31 08:44:37;;;;;;;3.72;2.08;;;;;;;;;;5090574;28;20044;-51
2023/08/31 08:47:04;;;;;;;5.38;2.20;;;;;;;;;;5090135;28;20048;-52
2023/08/31 08:49:35;;;;;;;4.97;2.15;;;;;;;;;;5090236;28;20044;-56
2023/08/31 08:52:02;;;;;;;;;;;;;;;;;;5091110;28;20052;-56
2023/08/31 08:54:29;;;;;;;4.55;1.88;;;;;;;;;;5087074;28;20397;-56
2023/08/31 08:56:55;;;;;;;4.25;2.10;;;;;;;;;;5082757;28;20372;-54
2023/08/31 08:59:22;;;;;;;3.75;2.13;;;;;;;;;;5090921;28;20054;-56
2023/08/31 09:01:49;;;;;;;5.10;2.75;;;;;;;;;;5093037;28;20071;-52
2023/08/31 09:04:15;;;;;;;4.05;2.10;;;;;;;;;;5095266;28;20036;-59
2023/08/31 09:06:44;;;;;;;5.47;2.20;;;;;;;;;;5091528;28;20127;-56
2023/08/31 09:09:11;;;;;;;5.53;2.03;;;;;;;;;;5095156;28;20051;-54
2023/08/31 09:11:37;;;;;;;3.60;2.22;;;;;;;;;;5089623;28;20052;-55
2023/08/31 09:14:15;;;;;;;6.30;2.10;;;;;;;;;;5084623;28;20047;-59
2023/08/31 09:16:45;;;;;;;5.25;2.08;;;;;;;;;;5080236;28;20052;-57
2023/08/31 09:19:18;;;;;;;;;;;;;;;;;;5088413;28;20044;-58
2023/08/31 09:21:48;;;;;;;4.75;1.85;;;;;;;;;;5085781;28;19929;-63
2023/08/31 09:24:14;;;;;;;5.38;2.00;;;;;;;;;;5087698;28;20429;-57
2023/08/31 09:26:44;;;;;;;4.38;2.13;;;;;;;;;;5089408;28;20062;-54
2023/08/31 09:29:10;;;;;;;4.25;2.20;;;;;;;;;;5092267;28;20047;-59
2023/08/31 09:31:37;;;;;;;4.85;2.33;;;;;;;;;;5092842;28;20476;-54
2023/08/31 09:34:04;;;;;;;4.97;2.13;;;;;;;;;;5090157;28;20044;-57
2023/08/31 09:36:32;;;;;;;3.95;2.10;;;;;;;;;;5089587;28;20639;-55
2023/08/31 09:39:00;;;;;;;3.25;1.95;;;;;;;;;;5089422;28;20044;-57
2023/08/31 09:41:27;;;;;;;4.60;2.00;;;;;;;;;;5088001;28;20043;-57
2023/08/31 09:43:53;;;;;;;4.28;1.90;;;;;;;;;;5089378;28;20044;-59
2023/08/31 09:46:22;;;;;;;4.97;2.00;;;;;;;;;;5089588;28;20421;-57
2023/08/31 09:48:48;;;;;;;4.40;2.22;;;;;;;;;;5089156;28;20044;-54
2023/08/31 09:51:19;;;;;;;3.65;1.88;;;;;;;;;;5086593;28;20051;-53
2023/08/31 09:53:50;;;;;;;3.45;1.88;;;;;;;;;;5085699;28;20479;-58
2023/08/31 09:56:24;;;;;;;3.50;1.90;;;;;;;;;;5089495;28;20497;-57
2023/08/31 09:58:51;;;;;;;3.65;1.90;;;;;;;;;;5088973;28;20051;-58
2023/08/31 10:01:18;;;;;;;4.30;2.00;;;;;;;;;;5089297;28;20048;-53
2023/08/31 10:03:44;;;;;;;3.85;1.92;;;;;;;;;;5089019;28;20080;-57
2023/08/31 10:06:12;;;;;;;4.45;1.90;;;;;;;;;;5088482;28;20557;-56
2023/08/31 10:08:39;;;;;;;5.05;1.83;;;;;;;;;;5089115;28;20127;-54
2023/08/31 10:11:07;;;;;;;4.53;1.90;;;;;;;;;;5089122;28;20051;-59
2023/08/31 10:13:37;;;;;;;3.67;2.13;;;;;;;;;;5089043;28;20050;-54
2023/08/31 10:16:05;;;;;;;;;;;;;;;;;;5089992;28;20076;-56
2023/08/31 10:18:35;;;;;;;2.88;1.52;;;;;;;;;;5089176;28;20566;-54
2023/08/31 10:21:03;;;;;;;3.15;1.58;;;;;;;;;;5083401;28;20052;-57
2023/08/31 10:23:30;;;;;;;4.57;1.80;;;;;;;;;;5083226;28;20097;-54
2023/08/31 10:26:01;;;;;;;4.15;1.70;;;;;;;;;;5084755;28;20047;-56
2023/08/31 10:28:28;;;;;;;3.40;1.58;;;;;;;;;;5085233;28;20043;-56
2023/08/31 10:31:04;;;;;;;3.80;1.67;;;;;;;;;;5085991;28;20047;-56
2023/08/31 10:33:32;;;;;;;4.13;1.77;;;;;;;;;;5085770;28;20058;-59
2023/08/31 10:35:59;;;;;;;3.30;1.65;;;;;;;;;;5089381;28;20476;-54
2023/08/31 10:38:28;;;;;;;4.05;1.75;;;;;;;;;;5089091;28;20508;-55
2023/08/31 10:41:04;;;;;;;3.42;1.83;;;;;;;;;;5089532;28;20058;-57
2023/08/31 10:43:45;;;;;;;4.60;2.00;;;;;;;;;;5088924;28;20051;-57
2023/08/31 10:46:19;;;;;;;;;;;;;;;;;;5089158;28;20055;-57
2023/08/31 10:48:53;;;;;;;4.28;1.77;;;;;;;;;;5088233;28;19920;-58
2023/08/31 10:51:23;;;;;;;3.97;2.10;;;;;;;;;;5088283;28;20420;-56
2023/08/31 10:53:50;;;;;;;5.97;2.15;;;;;;;;;;5087218;28;20043;-56
2023/08/31 10:56:17;;;;;;;5.38;2.03;;;;;;;;;;5082133;28;20084;-55
2023/08/31 10:58:44;;;;;;;4.78;2.60;;;;;;;;;;5078840;28;20387;-52
2023/08/31 11:01:11;;;;;;;8.30;3.28;;;;;;;;;;5085650;28;20048;-57
2023/08/31 11:03:59;;;;;;;7.18;3.33;;;;;;;;;;5088642;28;20040;-57
2023/08/31 11:06:29;;;;;;;5.45;3.00;;;;;;;;;;5083844;28;20408;-56
2023/08/31 11:08:56;;;;;;;4.40;3.00;;;;;;;;;;5088864;28;20454;-55
2023/08/31 11:11:24;;;;;;;5.57;3.05;;;;;;;;;;5088262;28;20533;-54
2023/08/31 11:13:50;;;;;;;5.40;2.97;;;;;;;;;;5088277;28;20043;-55
2023/08/31 11:16:17;;;;;;;6.22;3.22;;;;;;;;;;5088323;28;20048;-55
2023/08/31 11:18:43;;;;;;;4.28;2.60;;;;;;;;;;5088671;28;20424;-57
2023/08/31 11:21:11;;;;;;;4.43;2.20;;;;;;;;;;5088182;28;20055;-54
2023/08/31 11:23:38;;;;;;;4.72;2.28;;;;;;;;;;5084269;28;20040;-52
2023/08/31 11:28:46;;;;;;;6.22;3.22;;;;;;;;;;5067375;28;20039;-55
2023/08/31 11:31:13;;;;;;;4.05;2.30;;;;;;;;;;5069716;28;20108;-53
2023/08/31 11:33:41;;;;;;;7.35;2.50;;;;;;;;;;5069675;28;20098;-55
2023/08/31 11:36:08;;;;;;;4.53;2.40;;;;;;;;;;5057493;28;20053;-54
2023/08/31 11:38:36;;;;;;;5.72;2.58;;;;;;;;;;5049774;28;20051;-53
2023/08/31 11:41:03;;;;;;;6.05;2.20;;;;;;;;;;5049580;28;20143;-51
2023/08/31 11:43:30;;;;;;;6.00;2.63;;;;;;;;;;5049294;28;20440;-55
2023/08/31 11:45:57;;;;;;;5.28;2.38;;;;;;;;;;5049365;28;20863;-57
2023/08/31 11:48:24;;;;;;;5.10;2.60;;;;;;;;;;5049391;28;20052;-58
2023/08/31 11:50:52;;;;;;;5.00;2.42;;;;;;;;;;5049333;28;20048;-54
2023/08/31 11:53:19;;;;;;;4.85;2.10;;;;;;;;;;5053561;28;20136;-60
2023/08/31 11:55:54;;;;;;;5.07;2.58;;;;;;;;;;5068935;28;20054;-50
2023/08/31 11:58:20;;;;;;;4.85;2.58;;;;;;;;;;5068894;28;20079;-54
2023/08/31 12:00:55;;;;;;;4.63;2.10;;;;;;;;;;5055686;28;20409;-61
2023/08/31 12:03:23;;;;;;;5.30;2.22;;;;;;;;;;5053262;28;20057;-56
2023/08/31 12:05:54;;;;;;;4.22;2.20;;;;;;;;;;5046248;28;20087;-62
2023/08/31 12:08:26;;;;;;;6.20;2.63;;;;;;;;;;5054334;28;20178;-50
2023/08/31 12:10:55;;;;;;;4.65;2.50;;;;;;;;;;5048941;28;20048;-54
2023/08/31 12:13:28;;;;;;;4.33;2.30;;;;;;;;;;5049094;28;20486;-57
2023/08/31 12:15:55;;;;;;;4.20;1.95;;;;;;;;;;5048822;28;20044;-56
2023/08/31 12:18:22;;;;;;;4.57;2.17;;;;;;;;;;5051345;28;20052;-55
2023/08/31 12:20:51;;;;;;;4.75;2.03;;;;;;;;;;5052268;28;20041;-52
2023/08/31 12:23:21;;;;;;;4.65;2.13;;;;;;;;;;5057009;28;20433;-53
2023/08/31 12:25:48;;;;;;;4.60;2.00;;;;;;;;;;5052480;28;20045;-54
2023/08/31 12:28:17;;;;;;;4.72;2.20;;;;;;;;;;5065434;28;20045;-58
2023/08/31 12:30:48;;;;;;;3.80;1.80;;;;;;;;;;5052294;28;20448;-55
2023/08/31 12:33:15;;;;;;;5.40;2.10;;;;;;;;;;5052221;28;20084;-57
2023/08/31 12:35:42;;;;;;;5.35;2.30;;;;;;;;;;5060243;28;20499;-54
2023/08/31 12:38:08;;;;;;;5.68;1.98;;;;;;;;;;5066261;28;20123;-54
2023/08/31 12:40:35;;;;;;;5.70;2.30;;;;;;;;;;5068906;28;20674;-57
2023/08/31 12:43:02;;;;;;;5.47;2.53;;;;;;;;;;5053131;28;20056;-56
2023/08/31 12:45:30;;;;;;;5.60;2.13;;;;;;;;;;5051997;28;20501;-54
2023/08/31 12:47:56;;;;;;;5.85;2.10;;;;;;;;;;5057225;28;20041;-53
2023/08/31 12:50:23;;;;;;;4.13;1.80;;;;;;;;;;5072195;28;20412;-57
2023/08/31 12:52:50;;;;;;;5.45;1.90;;;;;;;;;;5071762;28;20048;-57
2023/08/31 12:55:17;;;;;;;5.93;2.13;;;;;;;;;;5072373;28;20053;-57
2023/08/31 12:57:44;;;;;;;4.13;2.20;;;;;;;;;;5071971;28;20048;-57
2023/08/31 13:00:12;;;;;;;6.43;2.05;;;;;;;;;;5071906;28;20421;-54
2023/08/31 13:02:40;;;;;;;4.88;2.00;;;;;;;;;;5067102;28;20558;-55
2023/08/31 13:05:08;;;;;;;7.70;2.95;;;;;;;;;;5063829;28;20045;-53
2023/08/31 13:07:36;;;;;;;3.70;2.00;;;;;;;;;;5051598;28;20441;-53
2023/08/31 13:10:03;;;;;;;3.72;1.90;;;;;;;;;;5068497;28;20045;-57
2023/08/31 13:12:30;;;;;;;5.30;2.20;;;;;;;;;;5056993;28;20146;-57
2023/08/31 13:14:57;;;;;;;4.95;2.08;;;;;;;;;;5051822;28;20106;-51
2023/08/31 13:17:26;;;;;;;4.30;1.95;;;;;;;;;;5065980;28;20429;-53
2023/08/31 13:19:54;;;;;;;4.43;1.80;;;;;;;;;;5071924;28;20080;-56
2023/08/31 13:22:22;;;;;;;4.40;1.77;;;;;;;;;;5071142;28;20140;-56
2023/08/31 13:24:48;;;;;;;4.68;1.88;;;;;;;;;;5071776;28;20384;-56
2023/08/31 13:27:15;;;;;;;4.65;1.98;;;;;;;;;;5066845;28;20135;-56
2023/08/31 13:29:42;;;;;;;4.95;2.00;;;;;;;;;;5071022;28;20088;-58
2023/08/31 13:32:09;;;;;;;5.07;1.80;;;;;;;;;;5056391;28;20052;-57
2023/08/31 13:34:36;;;;;;;4.13;1.70;;;;;;;;;;5051237;28;20043;-57
2023/08/31 13:37:05;;;;;;;4.03;1.80;;;;;;;;;;5051170;28;20065;-55
2023/08/31 13:39:32;;;;;;;3.85;2.03;;;;;;;;;;5051616;28;20044;-55
2023/08/31 13:41:58;;;;;;;3.67;1.75;;;;;;;;;;5052341;28;20482;-56
2023/08/31 13:44:25;;;;;;;3.95;1.98;;;;;;;;;;5071358;28;20606;-58
2023/08/31 13:46:51;;;;;;;4.15;1.83;;;;;;;;;;5060431;28;20407;-51
2023/08/31 13:49:18;;;;;;;3.83;1.90;;;;;;;;;;5050834;28;20045;-53
2023/08/31 13:51:45;;;;;;;2.95;1.63;;;;;;;;;;5069725;28;20049;-56
2023/08/31 13:54:13;;;;;;;6.25;2.60;;;;;;;;;;5067484;28;20045;-55
2023/08/31 13:56:40;;;;;;;5.55;1.92;;;;;;;;;;5069633;28;20118;-57
2023/08/31 13:59:06;;;;;;;4.28;1.90;;;;;;;;;;5067321;28;20080;-56
2023/08/31 14:01:33;;;;;;;4.30;1.80;;;;;;;;;;5060599;28;20048;-58
2023/08/31 14:03:59;;;;;;;3.72;1.83;;;;;;;;;;5063061;28;20402;-54
2023/08/31 14:06:26;;;;;;;4.38;1.83;;;;;;;;;;5060276;28;20317;-53
2023/08/31 14:08:53;;;;;;;3.83;1.73;;;;;;;;;;5070677;28;20454;-56
2023/08/31 14:11:21;;;;;;;4.18;1.67;;;;;;;;;;5070314;28;20512;-56
2023/08/31 14:13:48;;;;;;;4.30;1.58;;;;;;;;;;5067658;28;20463;-55
2023/08/31 14:16:14;;;;;;;4.35;1.80;;;;;;;;;;5050483;28;20052;-57
2023/08/31 14:18:41;;;;;;;4.18;1.90;;;;;;;;;;5050476;28;20413;-56
2023/08/31 14:21:07;;;;;;;3.92;1.92;;;;;;;;;;5049983;28;20049;-56
2023/08/31 14:23:34;;;;;;;5.50;1.85;;;;;;;;;;5066043;28;20078;-58
2023/08/31 14:26:04;;;;;;;3.08;1.70;;;;;;;;;;5069894;28;20045;-52
2023/08/31 14:28:32;;;;;;;4.43;1.67;;;;;;;;;;5065437;28;20057;-53
2023/08/31 14:30:58;;;;;;;4.63;1.90;;;;;;;;;;5060915;28;20041;-58
2023/08/31 14:33:25;;;;;;;3.22;1.73;;;;;;;;;;5069907;28;20059;-58
2023/08/31 14:35:52;;;;;;;5.22;2.10;;;;;;;;;;5056068;28;20049;-54
2023/08/31 14:38:22;;;;;;;3.97;1.70;;;;;;;;;;5050301;28;20061;-57
2023/08/31 14:40:48;;;;;;;5.95;2.33;;;;;;;;;;5049290;28;20044;-54
2023/08/31 14:43:15;;;;;;;4.07;1.95;;;;;;;;;;5050075;28;20048;-56
2023/08/31 14:45:43;;;;;;;3.15;1.58;;;;;;;;;;5054121;28;20049;-57
2023/08/31 14:48:10;;;;;;;3.55;1.88;;;;;;;;;;5049838;28;20438;-52